Time;durP1;ratioP1;P1;durP2;ratioP2;P2;SDS_P1;SDS_P2;PMS_P1;PMS_P2;Temp;Humidity;BMP_temperature;BMP_pressure;BME280_temperature;BME280_humidity;BME280_pressure;Samples;Min_cycle;Max_cycle;Signal;HPM_P1;HPM_P2
2023/05/04 00:01:03;;;;;;;6.37;4.00;;;;;;;;;;5025188;28;20399;-64
2023/05/04 00:03:29;;;;;;;7.30;4.50;;;;;;;;;;5026251;28;20348;-61
2023/05/04 00:05:54;;;;;;;6.80;4.55;;;;;;;;;;5056097;28;20043;-63
2023/05/04 00:08:19;;;;;;;6.67;4.63;;;;;;;;;;5046102;28;20063;-64
2023/05/04 00:10:44;;;;;;;5.50;3.90;;;;;;;;;;5045716;28;20392;-65
2023/05/04 00:13:10;;;;;;;6.47;4.43;;;;;;;;;;5024986;28;20287;-66
2023/05/04 00:15:36;;;;;;;6.68;4.70;;;;;;;;;;5036659;28;20336;-66
2023/05/04 00:18:01;;;;;;;6.25;4.40;;;;;;;;;;5028972;28;20105;-62
2023/05/04 00:20:26;;;;;;;5.63;4.20;;;;;;;;;;5028734;28;20509;-64
2023/05/04 00:22:51;;;;;;;6.60;4.33;;;;;;;;;;5052916;28;20666;-65
2023/05/04 00:25:17;;;;;;;5.67;4.20;;;;;;;;;;5039030;28;20354;-66
2023/05/04 00:27:42;;;;;;;7.35;4.20;;;;;;;;;;5045313;28;20412;-64
2023/05/04 00:30:07;;;;;;;5.43;4.20;;;;;;;;;;5045504;28;20032;-67
2023/05/04 00:32:32;;;;;;;6.35;4.35;;;;;;;;;;5045539;28;20794;-67
2023/05/04 00:34:58;;;;;;;6.53;4.20;;;;;;;;;;5026267;28;20056;-64
2023/05/04 00:37:23;;;;;;;7.05;4.10;;;;;;;;;;5061415;28;20331;-64
2023/05/04 00:39:48;;;;;;;5.17;3.57;;;;;;;;;;5045045;28;20036;-65
2023/05/04 00:42:14;;;;;;;5.85;4.10;;;;;;;;;;5044707;28;20278;-64
2023/05/04 00:44:43;;;;;;;7.13;4.67;;;;;;;;;;5061713;28;20516;-59
2023/05/04 00:47:08;;;;;;;5.60;3.67;;;;;;;;;;5045529;28;20458;-65
2023/05/04 00:49:34;;;;;;;5.78;4.25;;;;;;;;;;5044551;28;20119;-66
2023/05/04 00:52:00;;;;;;;5.68;3.90;;;;;;;;;;5034353;28;20516;-63
2023/05/04 00:54:25;;;;;;;5.43;3.90;;;;;;;;;;5059658;28;20361;-59
2023/05/04 00:56:50;;;;;;;6.32;4.20;;;;;;;;;;5063457;28;20049;-65
2023/05/04 00:59:16;;;;;;;6.60;4.40;;;;;;;;;;5063323;28;20562;-66
2023/05/04 01:01:41;;;;;;;7.13;3.90;;;;;;;;;;5028379;28;20427;-70
2023/05/04 01:04:06;;;;;;;5.63;3.90;;;;;;;;;;5044652;28;20492;-61
2023/05/04 01:06:47;;;;;;;5.50;3.80;;;;;;;;;;5043589;28;20287;-65
2023/05/04 01:09:13;;;;;;;5.43;3.60;;;;;;;;;;5038872;28;20303;-64
2023/05/04 01:12:02;;;;;;;4.65;3.53;;;;;;;;;;5037558;28;20135;-65
2023/05/04 01:14:27;;;;;;;4.90;3.92;;;;;;;;;;5039289;28;20029;-65
2023/05/04 01:16:53;;;;;;;6.13;3.73;;;;;;;;;;5060397;28;20051;-63
2023/05/04 01:19:18;;;;;;;5.30;4.00;;;;;;;;;;5041398;28;20307;-62
2023/05/04 01:21:44;;;;;;;4.50;3.67;;;;;;;;;;5038527;28;20043;-63
2023/05/04 01:24:09;;;;;;;6.57;3.83;;;;;;;;;;5037323;28;20072;-60
2023/05/04 01:26:38;;;;;;;5.10;4.00;;;;;;;;;;5034235;28;20089;-64
2023/05/04 01:29:07;;;;;;;4.93;3.45;;;;;;;;;;5028682;28;20525;-66
2023/05/04 01:31:32;;;;;;;4.82;3.63;;;;;;;;;;5039079;28;20556;-62
2023/05/04 01:33:57;;;;;;;5.27;3.50;;;;;;;;;;5043956;28;20103;-65
2023/05/04 01:36:22;;;;;;;4.60;3.37;;;;;;;;;;5044506;28;20425;-64
2023/05/04 01:38:48;;;;;;;4.53;3.20;;;;;;;;;;5044309;28;20301;-66
2023/05/04 01:41:13;;;;;;;5.22;3.53;;;;;;;;;;5044993;28;20385;-62
2023/05/04 01:43:39;;;;;;;5.50;3.60;;;;;;;;;;5026619;28;20044;-66
2023/05/04 01:46:04;;;;;;;4.45;3.42;;;;;;;;;;5062359;28;20043;-66
2023/05/04 01:48:29;;;;;;;4.27;3.40;;;;;;;;;;5044330;28;20033;-62
2023/05/04 01:50:55;;;;;;;4.78;3.47;;;;;;;;;;5027900;28;20741;-66
2023/05/04 01:53:20;;;;;;;4.73;3.60;;;;;;;;;;5044456;28;20037;-66
2023/05/04 01:55:45;;;;;;;4.20;3.33;;;;;;;;;;5062251;28;20974;-65
2023/05/04 01:58:10;;;;;;;4.13;3.40;;;;;;;;;;5043928;28;20041;-67
2023/05/04 02:00:36;;;;;;;4.55;3.50;;;;;;;;;;5070294;28;20309;-66
2023/05/04 02:03:01;;;;;;;5.23;3.73;;;;;;;;;;5068228;28;20451;-59
2023/05/04 02:05:26;;;;;;;4.65;3.38;;;;;;;;;;5068834;28;20291;-63
2023/05/04 02:07:51;;;;;;;5.22;3.83;;;;;;;;;;5028840;28;20115;-66
2023/05/04 02:10:17;;;;;;;5.33;3.43;;;;;;;;;;5043992;28;20082;-62
2023/05/04 02:12:42;;;;;;;4.82;3.83;;;;;;;;;;5030406;28;20298;-66
2023/05/04 02:15:07;;;;;;;4.17;3.17;;;;;;;;;;5030433;28;20428;-65
2023/05/04 02:17:33;;;;;;;4.38;3.22;;;;;;;;;;5050632;28;20350;-66
2023/05/04 02:19:58;;;;;;;5.10;3.88;;;;;;;;;;5050912;28;20068;-65
2023/05/04 02:22:23;;;;;;;4.80;3.33;;;;;;;;;;5068520;28;20568;-65
2023/05/04 02:24:48;;;;;;;4.60;3.60;;;;;;;;;;5047038;28;20664;-65
2023/05/04 02:27:14;;;;;;;4.50;3.20;;;;;;;;;;5047508;28;20294;-66
2023/05/04 02:29:39;;;;;;;4.00;3.20;;;;;;;;;;5047865;28;20277;-61
2023/05/04 02:32:04;;;;;;;4.40;3.15;;;;;;;;;;5048919;28;20124;-63
2023/05/04 02:34:30;;;;;;;4.53;3.10;;;;;;;;;;5069431;28;20466;-65
2023/05/04 02:36:55;;;;;;;4.70;3.58;;;;;;;;;;5067790;28;20342;-60
2023/05/04 02:39:21;;;;;;;4.23;3.10;;;;;;;;;;5067040;28;20040;-64
2023/05/04 02:41:46;;;;;;;3.85;3.25;;;;;;;;;;5065464;28;20812;-70
2023/05/04 02:44:11;;;;;;;3.90;3.40;;;;;;;;;;5029747;28;20036;-62
2023/05/04 02:46:36;;;;;;;4.43;3.42;;;;;;;;;;5047202;28;20352;-66
2023/05/04 02:49:02;;;;;;;10.63;3.53;;;;;;;;;;5046769;28;20032;-65
2023/05/04 02:51:27;;;;;;;4.47;3.10;;;;;;;;;;5056846;28;20294;-66
2023/05/04 02:53:52;;;;;;;4.43;3.37;;;;;;;;;;5040895;28;20708;-60
2023/05/04 02:56:17;;;;;;;3.50;3.20;;;;;;;;;;5047091;28;20325;-67
2023/05/04 02:58:42;;;;;;;3.63;3.07;;;;;;;;;;5046970;28;20297;-64
2023/05/04 03:01:08;;;;;;;4.17;3.13;;;;;;;;;;5064705;28;20351;-67
2023/05/04 03:03:33;;;;;;;4.97;3.20;;;;;;;;;;5030144;28;20271;-60
2023/05/04 03:05:58;;;;;;;5.23;3.60;;;;;;;;;;5029919;28;20290;-63
2023/05/04 03:08:23;;;;;;;4.00;2.93;;;;;;;;;;5057750;28;20924;-65
2023/05/04 03:10:49;;;;;;;4.40;3.20;;;;;;;;;;5025355;28;20283;-63
2023/05/04 03:13:15;;;;;;;4.28;3.42;;;;;;;;;;5027106;28;20294;-61
2023/05/04 03:15:40;;;;;;;3.85;3.08;;;;;;;;;;5041328;28;20131;-64
2023/05/04 03:18:06;;;;;;;4.22;3.17;;;;;;;;;;5064442;28;20147;-67
2023/05/04 03:20:31;;;;;;;3.70;2.80;;;;;;;;;;5045637;28;20044;-65
2023/05/04 03:22:56;;;;;;;3.97;3.00;;;;;;;;;;5046473;28;20638;-61
2023/05/04 03:25:21;;;;;;;4.33;3.20;;;;;;;;;;5063066;28;20404;-63
2023/05/04 03:27:47;;;;;;;4.03;3.23;;;;;;;;;;5046434;28;20040;-64
2023/05/04 03:30:12;;;;;;;4.80;3.40;;;;;;;;;;5046000;28;20275;-64
2023/05/04 03:32:37;;;;;;;4.97;3.15;;;;;;;;;;5046597;28;20584;-60
2023/05/04 03:35:03;;;;;;;4.90;3.00;;;;;;;;;;5028976;28;20049;-63
2023/05/04 03:37:28;;;;;;;3.97;2.80;;;;;;;;;;5045998;28;20051;-63
2023/05/04 03:39:53;;;;;;;4.07;3.20;;;;;;;;;;5063869;28;20036;-62
2023/05/04 03:42:18;;;;;;;4.17;3.03;;;;;;;;;;5048705;28;20789;-64
2023/05/04 03:44:44;;;;;;;4.17;3.03;;;;;;;;;;5044088;28;20307;-64
2023/05/04 03:47:09;;;;;;;4.27;3.37;;;;;;;;;;5048244;28;20287;-64
2023/05/04 03:49:34;;;;;;;3.67;2.90;;;;;;;;;;5036477;28;20283;-62
2023/05/04 03:51:59;;;;;;;4.17;3.50;;;;;;;;;;5032794;28;20497;-63
2023/05/04 03:54:25;;;;;;;3.28;2.92;;;;;;;;;;5019063;28;20282;-63
2023/05/04 03:56:50;;;;;;;3.92;3.00;;;;;;;;;;5030790;28;20356;-61
2023/05/04 03:59:16;;;;;;;4.20;3.05;;;;;;;;;;5019629;28;20105;-58
2023/05/04 04:01:41;;;;;;;3.53;2.88;;;;;;;;;;5046923;28;20035;-58
2023/05/04 04:04:06;;;;;;;3.80;2.93;;;;;;;;;;5047434;28;20428;-59
2023/05/04 04:06:34;;;;;;;4.65;3.03;;;;;;;;;;5030333;28;20542;-62
2023/05/04 04:08:59;;;;;;;4.07;2.90;;;;;;;;;;5076651;23;20414;-63
2023/05/04 04:11:25;;;;;;;3.80;3.20;;;;;;;;;;5057444;28;20357;-67
2023/05/04 04:13:50;;;;;;;3.65;2.80;;;;;;;;;;5068142;28;20292;-63
2023/05/04 04:16:15;;;;;;;4.22;2.85;;;;;;;;;;5073416;28;20143;-65
2023/05/04 04:18:41;;;;;;;3.50;3.03;;;;;;;;;;5057309;28;20024;-63
2023/05/04 04:21:06;;;;;;;3.90;2.80;;;;;;;;;;5082117;28;20428;-56
2023/05/04 04:23:31;;;;;;;4.37;3.10;;;;;;;;;;5073206;28;20583;-63
2023/05/04 04:25:57;;;;;;;4.17;2.87;;;;;;;;;;5053928;28;20267;-60
2023/05/04 04:28:33;;;;;;;4.57;3.10;;;;;;;;;;5064750;28;20044;-65
2023/05/04 04:30:58;;;;;;;3.43;2.97;;;;;;;;;;5056132;28;20047;-71
2023/05/04 04:33:23;;;;;;;3.70;2.80;;;;;;;;;;5080549;28;20298;-67
2023/05/04 04:35:49;;;;;;;4.15;2.92;;;;;;;;;;5072731;28;20058;-64
2023/05/04 04:38:14;;;;;;;4.90;2.97;;;;;;;;;;5071822;28;20383;-68
2023/05/04 04:40:39;;;;;;;3.42;3.05;;;;;;;;;;5056447;28;20275;-63
2023/05/04 04:43:04;;;;;;;4.05;3.28;;;;;;;;;;5055739;28;20202;-64
2023/05/04 04:45:30;;;;;;;3.80;2.88;;;;;;;;;;5072354;28;20025;-67
2023/05/04 04:47:55;;;;;;;4.15;3.05;;;;;;;;;;5076513;28;20520;-69
2023/05/04 04:50:20;;;;;;;4.13;2.70;;;;;;;;;;5043849;28;20028;-65
2023/05/04 04:52:46;;;;;;;5.03;3.10;;;;;;;;;;5046449;28;20519;-66
2023/05/04 04:55:12;;;;;;;5.18;3.15;;;;;;;;;;5045334;28;20621;-68
2023/05/04 04:57:37;;;;;;;4.28;3.17;;;;;;;;;;5082095;28;20008;-66
2023/05/04 05:00:07;;;;;;;2.90;2.50;;;;;;;;;;5073216;28;20020;-65
2023/05/04 05:02:32;;;;;;;4.78;2.90;;;;;;;;;;5055234;28;20274;-62
2023/05/04 05:04:57;;;;;;;4.00;2.95;;;;;;;;;;5073393;28;20060;-60
2023/05/04 05:07:23;;;;;;;4.67;2.90;;;;;;;;;;5072415;28;20063;-66
2023/05/04 05:09:48;;;;;;;3.42;2.90;;;;;;;;;;5055390;28;20277;-70
2023/05/04 05:12:13;;;;;;;4.32;3.00;;;;;;;;;;5051323;28;20049;-69
2023/05/04 05:14:38;;;;;;;3.90;2.80;;;;;;;;;;5071010;28;20712;-61
2023/05/04 05:17:04;;;;;;;4.37;3.30;;;;;;;;;;5055703;28;20436;-69
2023/05/04 05:19:29;;;;;;;4.90;3.20;;;;;;;;;;5051260;28;20059;-66
2023/05/04 05:21:55;;;;;;;3.80;2.90;;;;;;;;;;5048561;28;20066;-64
2023/05/04 05:24:21;;;;;;;3.30;2.80;;;;;;;;;;5053231;28;20532;-74
2023/05/04 05:26:46;;;;;;;3.53;2.75;;;;;;;;;;5061462;28;20127;-67
2023/05/04 05:29:11;;;;;;;4.10;2.90;;;;;;;;;;5071063;28;20448;-59
2023/05/04 05:31:37;;;;;;;3.78;2.72;;;;;;;;;;5070011;28;20304;-66
2023/05/04 05:34:02;;;;;;;4.30;3.13;;;;;;;;;;5070617;28;20036;-67
2023/05/04 05:36:27;;;;;;;3.30;2.80;;;;;;;;;;5071595;28;20362;-67
2023/05/04 05:38:52;;;;;;;3.80;2.90;;;;;;;;;;5074764;28;20302;-63
2023/05/04 05:41:18;;;;;;;4.95;2.95;;;;;;;;;;5073936;28;20127;-62
2023/05/04 05:43:43;;;;;;;3.78;2.80;;;;;;;;;;5086894;28;20079;-66
2023/05/04 05:46:08;;;;;;;4.10;3.08;;;;;;;;;;5073442;28;20036;-64
2023/05/04 05:48:34;;;;;;;3.30;2.73;;;;;;;;;;5073298;28;20476;-65
2023/05/04 05:50:59;;;;;;;4.70;3.08;;;;;;;;;;5072701;28;20286;-62
2023/05/04 05:53:25;;;;;;;4.63;3.10;;;;;;;;;;5073522;28;20040;-61
2023/05/04 05:55:50;;;;;;;3.88;3.03;;;;;;;;;;5074004;28;20371;-62
2023/05/04 05:58:15;;;;;;;3.23;2.57;;;;;;;;;;5070108;28;20428;-67
2023/05/04 06:00:41;;;;;;;4.30;2.70;;;;;;;;;;5076405;28;21290;-64
2023/05/04 06:03:06;;;;;;;4.45;2.95;;;;;;;;;;5074796;28;20117;-63
2023/05/04 06:05:32;;;;;;;3.35;2.85;;;;;;;;;;5078116;28;20033;-60
2023/05/04 06:07:57;;;;;;;3.65;2.63;;;;;;;;;;5072814;28;20119;-66
2023/05/04 06:10:23;;;;;;;3.10;2.67;;;;;;;;;;5063872;28;20592;-65
2023/05/04 06:12:48;;;;;;;3.35;2.67;;;;;;;;;;5062570;28;20543;-66
2023/05/04 06:15:13;;;;;;;3.67;2.73;;;;;;;;;;5064825;28;20919;-66
2023/05/04 06:17:39;;;;;;;4.40;2.78;;;;;;;;;;5072903;28;20123;-67
2023/05/04 06:20:05;;;;;;;4.55;3.03;;;;;;;;;;5056811;28;20093;-59
2023/05/04 06:22:30;;;;;;;4.28;2.80;;;;;;;;;;5069500;28;20040;-62
2023/05/04 06:24:56;;;;;;;3.45;2.90;;;;;;;;;;5070587;28;20531;-68
2023/05/04 06:27:21;;;;;;;4.23;2.80;;;;;;;;;;5071380;28;20054;-67
2023/05/04 06:29:47;;;;;;;4.68;2.75;;;;;;;;;;5070060;28;20780;-64
2023/05/04 06:32:12;;;;;;;3.10;2.45;;;;;;;;;;5071211;28;20509;-65
2023/05/04 06:34:38;;;;;;;4.20;2.70;;;;;;;;;;5068117;28;20097;-65
2023/05/04 06:37:03;;;;;;;3.50;2.50;;;;;;;;;;5064468;28;20056;-70
2023/05/04 06:39:28;;;;;;;3.17;2.30;;;;;;;;;;5067292;28;20285;-64
2023/05/04 06:41:57;;;;;;;2.80;2.40;;;;;;;;;;5071629;28;21025;-62
2023/05/04 06:44:22;;;;;;;4.15;2.70;;;;;;;;;;5070792;28;20043;-62
2023/05/04 06:46:47;;;;;;;3.25;2.58;;;;;;;;;;5071346;28;20033;-66
2023/05/04 06:49:12;;;;;;;4.00;2.80;;;;;;;;;;5069844;28;20572;-71
2023/05/04 06:51:38;;;;;;;4.30;2.77;;;;;;;;;;5070429;28;20660;-68
2023/05/04 06:54:04;;;;;;;3.67;2.70;;;;;;;;;;5071641;28;20359;-67
2023/05/04 06:56:29;;;;;;;3.93;2.80;;;;;;;;;;5070656;28;20145;-68
2023/05/04 06:58:55;;;;;;;3.10;2.72;;;;;;;;;;5071991;28;20372;-74
2023/05/04 07:01:20;;;;;;;3.75;2.50;;;;;;;;;;5069632;28;20048;-73
2023/05/04 07:03:45;;;;;;;3.10;2.53;;;;;;;;;;5069273;28;20039;-74
2023/05/04 07:06:11;;;;;;;3.80;3.10;;;;;;;;;;5077706;28;20617;-61
2023/05/04 07:08:36;;;;;;;4.82;2.90;;;;;;;;;;5077209;28;20294;-73
2023/05/04 07:11:01;;;;;;;5.03;2.60;;;;;;;;;;5077714;28;21398;-70
2023/05/04 07:13:27;;;;;;;3.47;2.60;;;;;;;;;;5083052;28;20378;-63
2023/05/04 07:15:52;;;;;;;4.47;2.60;;;;;;;;;;5074325;28;20309;-71
2023/05/04 07:18:17;;;;;;;3.83;2.38;;;;;;;;;;5077026;28;20428;-73
2023/05/04 07:20:42;;;;;;;3.80;2.60;;;;;;;;;;5071082;28;20035;-71
2023/05/04 07:23:08;;;;;;;3.38;2.83;;;;;;;;;;5064077;28;20285;-73
2023/05/04 07:25:33;;;;;;;4.33;2.80;;;;;;;;;;5080149;28;20041;-71
2023/05/04 07:27:58;;;;;;;3.88;2.70;;;;;;;;;;5072668;28;20040;-75
2023/05/04 07:30:24;;;;;;;3.45;2.60;;;;;;;;;;5074604;28;20033;-65
2023/05/04 07:32:49;;;;;;;3.55;2.50;;;;;;;;;;5075940;28;20502;-70
2023/05/04 07:35:14;;;;;;;3.88;2.60;;;;;;;;;;5071149;28;20499;-69
2023/05/04 07:37:40;;;;;;;4.63;2.53;;;;;;;;;;5071355;28;20040;-65
2023/05/04 07:40:06;;;;;;;3.47;2.77;;;;;;;;;;5074065;28;20484;-68
2023/05/04 07:42:31;;;;;;;3.63;2.50;;;;;;;;;;5070555;28;20290;-70
2023/05/04 07:44:57;;;;;;;3.80;2.58;;;;;;;;;;5075222;28;20040;-63
2023/05/04 07:47:22;;;;;;;3.55;2.22;;;;;;;;;;5070376;28;20127;-73
2023/05/04 07:49:47;;;;;;;4.80;2.58;;;;;;;;;;5061744;28;20492;-70
2023/05/04 07:52:12;;;;;;;3.92;2.33;;;;;;;;;;5071237;28;20040;-66
2023/05/04 07:54:38;;;;;;;4.23;2.43;;;;;;;;;;5056349;28;20040;-66
2023/05/04 07:57:03;;;;;;;3.70;2.60;;;;;;;;;;5064909;28;20309;-69
2023/05/04 07:59:31;;;;;;;3.80;2.60;;;;;;;;;;5065875;28;20122;-72
2023/05/04 08:01:56;;;;;;;5.88;2.70;;;;;;;;;;5083378;28;20036;-69
2023/05/04 08:04:22;;;;;;;3.83;2.37;;;;;;;;;;5083462;28;20507;-59
2023/05/04 08:06:48;;;;;;;4.18;2.60;;;;;;;;;;5065438;28;20316;-59
2023/05/04 08:09:13;;;;;;;4.10;2.33;;;;;;;;;;5083500;28;20105;-77
2023/05/04 08:11:39;;;;;;;4.20;2.50;;;;;;;;;;5076355;28;20069;-65
2023/05/04 08:14:04;;;;;;;3.73;2.20;;;;;;;;;;5073852;28;20040;-68
2023/05/04 08:16:29;;;;;;;5.15;2.58;;;;;;;;;;5081551;28;21171;-70
2023/05/04 08:18:55;;;;;;;3.63;2.60;;;;;;;;;;5078984;28;20427;-65
2023/05/04 08:21:20;;;;;;;3.83;2.40;;;;;;;;;;5077773;28;20472;-70
2023/05/04 08:23:46;;;;;;;3.88;2.60;;;;;;;;;;5065622;28;20055;-74
2023/05/04 08:26:11;;;;;;;3.50;2.57;;;;;;;;;;5080489;28;20431;-67
2023/05/04 08:28:37;;;;;;;4.60;2.53;;;;;;;;;;5081335;28;20294;-69
2023/05/04 08:31:02;;;;;;;3.92;2.50;;;;;;;;;;5082868;28;20321;-69
2023/05/04 08:33:28;;;;;;;5.88;2.08;;;;;;;;;;5082551;28;20368;-64
2023/05/04 08:35:53;;;;;;;3.27;2.57;;;;;;;;;;5080945;28;20075;-70
2023/05/04 08:38:18;;;;;;;4.13;2.70;;;;;;;;;;5082031;28;20036;-66
2023/05/04 08:40:44;;;;;;;3.30;2.20;;;;;;;;;;5077936;28;20048;-61
2023/05/04 08:43:09;;;;;;;3.75;2.83;;;;;;;;;;5076843;28;20801;-68
2023/05/04 08:45:38;;;;;;;3.90;2.30;;;;;;;;;;5080744;28;20051;-66
2023/05/04 08:48:04;;;;;;;3.92;2.50;;;;;;;;;;5067204;28;20278;-62
2023/05/04 08:50:30;;;;;;;5.28;2.67;;;;;;;;;;5062370;28;20411;-63
2023/05/04 08:52:55;;;;;;;4.50;2.55;;;;;;;;;;5081201;28;20415;-68
2023/05/04 08:55:20;;;;;;;4.33;2.60;;;;;;;;;;5084015;28;20501;-58
2023/05/04 08:57:45;;;;;;;5.80;3.92;;;;;;;;;;5079077;28;20286;-69
2023/05/04 09:00:12;;;;;;;7.60;4.15;;;;;;;;;;5069056;28;20848;-69
2023/05/04 09:02:37;;;;;;;9.75;3.70;;;;;;;;;;5069183;28;20040;-63
2023/05/04 09:05:03;;;;;;;6.50;3.17;;;;;;;;;;5051657;28;20429;-62
2023/05/04 09:07:29;;;;;;;5.28;4.15;;;;;;;;;;5057458;28;20037;-64
2023/05/04 09:09:55;;;;;;;7.00;3.80;;;;;;;;;;5071546;28;20040;-63
2023/05/04 09:12:21;;;;;;;8.77;3.70;;;;;;;;;;5078414;28;21063;-65
2023/05/04 09:14:46;;;;;;;6.87;3.37;;;;;;;;;;5071026;28;20052;-62
2023/05/04 09:17:12;;;;;;;5.75;3.05;;;;;;;;;;5076958;28;20856;-68
2023/05/04 09:19:42;;;;;;;6.32;3.33;;;;;;;;;;5073091;28;20139;-68
2023/05/04 09:22:07;;;;;;;;;;;;;;;;;;5078885;28;20059;-69
2023/05/04 09:24:32;;;;;;;3.97;2.42;;;;;;;;;;5072232;28;19951;-67
2023/05/04 09:27:10;;;;;;;3.87;2.80;;;;;;;;;;5073137;28;20056;-66
2023/05/04 09:29:38;;;;;;;4.93;2.88;;;;;;;;;;5061956;28;20302;-74
2023/05/04 09:32:03;;;;;;;4.28;2.65;;;;;;;;;;5060705;28;20036;-71
2023/05/04 09:34:29;;;;;;;4.63;2.88;;;;;;;;;;5071283;28;20481;-63
2023/05/04 09:36:58;;;;;;;5.43;2.80;;;;;;;;;;5078030;28;20112;-69
2023/05/04 09:39:23;;;;;;;5.22;2.85;;;;;;;;;;5060020;28;20051;-68
2023/05/04 09:41:48;;;;;;;4.95;2.80;;;;;;;;;;5071943;28;20055;-72
2023/05/04 09:44:17;;;;;;;4.32;3.00;;;;;;;;;;5071957;28;20507;-65
2023/05/04 09:46:50;;;;;;;3.90;2.67;;;;;;;;;;5077728;28;20039;-68
2023/05/04 09:49:17;;;;;;;4.00;2.70;;;;;;;;;;5079398;28;20191;-74
2023/05/04 09:51:42;;;;;;;3.53;2.40;;;;;;;;;;5062360;28;20036;-73
2023/05/04 09:54:08;;;;;;;5.72;2.58;;;;;;;;;;5070848;28;20529;-68
2023/05/04 09:56:37;;;;;;;4.63;2.60;;;;;;;;;;5060941;28;20135;-72
2023/05/04 09:59:04;;;;;;;3.05;2.20;;;;;;;;;;5057800;28;20303;-70
2023/05/04 10:01:29;;;;;;;4.18;2.38;;;;;;;;;;5074354;28;20238;-67
2023/05/04 10:03:54;;;;;;;4.35;2.50;;;;;;;;;;5059170;28;20067;-67
2023/05/04 10:06:20;;;;;;;3.67;2.20;;;;;;;;;;5058609;28;20484;-68
2023/05/04 10:08:48;;;;;;;3.80;2.60;;;;;;;;;;5073505;28;20025;-68
2023/05/04 10:11:13;;;;;;;3.70;2.40;;;;;;;;;;5052431;28;20483;-69
2023/05/04 10:13:39;;;;;;;4.10;2.70;;;;;;;;;;5073626;28;20523;-64
2023/05/04 10:16:17;;;;;;;3.97;2.60;;;;;;;;;;5070079;28;20139;-64
2023/05/04 10:19:02;;;;;;;3.08;2.20;;;;;;;;;;5050797;28;20043;-65
2023/05/04 10:21:41;;;;;;;4.28;2.70;;;;;;;;;;5070111;28;20040;-67
2023/05/04 10:24:18;;;;;;;4.07;2.60;;;;;;;;;;5075106;28;20904;-64
2023/05/04 10:26:49;;;;;;;4.35;2.65;;;;;;;;;;5070086;28;20166;-64
2023/05/04 10:29:21;;;;;;;3.15;2.40;;;;;;;;;;5069687;28;20097;-66
2023/05/04 10:31:46;;;;;;;4.05;2.50;;;;;;;;;;5069949;28;20496;-64
2023/05/04 10:34:21;;;;;;;3.25;2.50;;;;;;;;;;5068534;28;20039;-64
2023/05/04 10:36:47;;;;;;;3.42;2.47;;;;;;;;;;5058394;28;20124;-63
2023/05/04 10:39:19;;;;;;;4.35;2.60;;;;;;;;;;5069566;28;20039;-63
2023/05/04 10:42:05;;;;;;;3.95;2.35;;;;;;;;;;5072006;28;20880;-69
2023/05/04 10:44:31;;;;;;;3.10;2.22;;;;;;;;;;5070988;28;20040;-69
2023/05/04 10:47:04;;;;;;;4.20;2.60;;;;;;;;;;5057661;28;20492;-64
2023/05/04 10:49:29;;;;;;;4.20;2.08;;;;;;;;;;5071269;28;20044;-63
2023/05/04 10:52:04;;;;;;;2.67;2.13;;;;;;;;;;5071573;28;20085;-66
2023/05/04 10:54:29;;;;;;;4.30;2.58;;;;;;;;;;5069557;28;20450;-64
2023/05/04 10:57:03;;;;;;;3.10;2.38;;;;;;;;;;5068719;28;20040;-71
2023/05/04 10:59:29;;;;;;;4.18;2.63;;;;;;;;;;5074011;28;20066;-62
2023/05/04 11:01:55;;;;;;;3.35;2.30;;;;;;;;;;5053326;28;20505;-70
2023/05/04 11:04:21;;;;;;;3.85;2.47;;;;;;;;;;5072582;28;20050;-64
2023/05/04 11:06:56;;;;;;;3.80;2.53;;;;;;;;;;5077016;28;20531;-65
2023/05/04 11:09:21;;;;;;;3.35;2.50;;;;;;;;;;5074496;28;20036;-66
2023/05/04 11:11:47;;;;;;;4.80;2.43;;;;;;;;;;5073411;28;20038;-64
2023/05/04 11:14:19;;;;;;;3.22;2.35;;;;;;;;;;5077713;28;20294;-64
2023/05/04 11:16:45;;;;;;;3.35;2.75;;;;;;;;;;5085669;28;20043;-66
2023/05/04 11:19:11;;;;;;;3.28;2.25;;;;;;;;;;5072097;28;20043;-65
2023/05/04 11:21:36;;;;;;;4.03;2.60;;;;;;;;;;5075492;28;20026;-64
2023/05/04 11:24:02;;;;;;;3.35;2.03;;;;;;;;;;5074676;28;20381;-67
2023/05/04 11:26:27;;;;;;;3.42;2.80;;;;;;;;;;5068908;28;20129;-63
2023/05/04 11:28:52;;;;;;;3.72;2.45;;;;;;;;;;5069955;28;20089;-68
2023/05/04 11:31:18;;;;;;;3.40;2.30;;;;;;;;;;5069714;28;20016;-64
2023/05/04 11:33:45;;;;;;;3.50;2.30;;;;;;;;;;5070447;28;20277;-66
2023/05/04 11:36:10;;;;;;;3.00;2.30;;;;;;;;;;5060273;28;20028;-65
2023/05/04 11:38:36;;;;;;;4.35;2.63;;;;;;;;;;5062180;28;20035;-68
2023/05/04 11:41:01;;;;;;;4.00;2.35;;;;;;;;;;5073969;28;20028;-66
2023/05/04 11:43:26;;;;;;;3.45;2.38;;;;;;;;;;5083474;28;20030;-67
2023/05/04 11:45:54;;;;;;;3.83;2.50;;;;;;;;;;5079161;28;20028;-66
2023/05/04 11:48:19;;;;;;;4.95;2.55;;;;;;;;;;5081119;28;20020;-67
2023/05/04 11:50:45;;;;;;;3.53;2.60;;;;;;;;;;5063926;28;20511;-65
2023/05/04 11:53:11;;;;;;;4.22;2.40;;;;;;;;;;5080943;28;20016;-65
2023/05/04 11:55:36;;;;;;;3.45;2.40;;;;;;;;;;5080539;28;20583;-65
2023/05/04 11:58:02;;;;;;;3.80;2.60;;;;;;;;;;5081874;28;20031;-67
2023/05/04 12:00:36;;;;;;;4.22;2.50;;;;;;;;;;5081708;28;20036;-66
2023/05/04 12:03:01;;;;;;;3.85;2.60;;;;;;;;;;5081739;28;20515;-67
2023/05/04 12:05:27;;;;;;;3.63;2.50;;;;;;;;;;5081443;28;20044;-66
2023/05/04 12:07:52;;;;;;;2.95;2.28;;;;;;;;;;5080357;28;20115;-67
2023/05/04 12:10:24;;;;;;;4.27;2.70;;;;;;;;;;5081804;28;20028;-67
2023/05/04 12:12:49;;;;;;;3.45;2.47;;;;;;;;;;5075376;28;20307;-67
2023/05/04 12:15:15;;;;;;;2.93;2.13;;;;;;;;;;5060026;28;20118;-66
2023/05/04 12:17:40;;;;;;;3.85;2.50;;;;;;;;;;5064136;28;20301;-67
2023/05/04 12:20:06;;;;;;;3.00;2.28;;;;;;;;;;5080582;28;20032;-66
2023/05/04 12:22:32;;;;;;;3.20;2.30;;;;;;;;;;5056884;28;20039;-66
2023/05/04 12:24:57;;;;;;;3.50;2.35;;;;;;;;;;5078413;28;20040;-64
2023/05/04 12:27:22;;;;;;;4.03;2.55;;;;;;;;;;5080733;28;20054;-69
2023/05/04 12:29:48;;;;;;;3.53;2.27;;;;;;;;;;5080921;28;20032;-63
2023/05/04 12:32:13;;;;;;;3.85;2.33;;;;;;;;;;5082372;28;20745;-66
2023/05/04 12:34:38;;;;;;;2.63;2.07;;;;;;;;;;5081831;28;20047;-66
2023/05/04 12:37:04;;;;;;;4.40;2.53;;;;;;;;;;5076602;28;20055;-67
2023/05/04 12:39:31;;;;;;;3.72;2.15;;;;;;;;;;5078867;28;20636;-64
2023/05/04 12:41:56;;;;;;;3.42;2.58;;;;;;;;;;5081527;28;20028;-66
2023/05/04 12:44:22;;;;;;;4.65;2.58;;;;;;;;;;5081180;28;20032;-66
2023/05/04 12:46:47;;;;;;;3.58;2.63;;;;;;;;;;5083136;28;20028;-64
2023/05/04 12:49:13;;;;;;;3.50;2.50;;;;;;;;;;5075509;28;20032;-66
2023/05/04 12:51:38;;;;;;;3.55;2.65;;;;;;;;;;5082121;28;20105;-65
2023/05/04 12:54:03;;;;;;;3.27;2.40;;;;;;;;;;5077429;28;20131;-66
2023/05/04 12:56:28;;;;;;;3.53;2.47;;;;;;;;;;5076827;28;20822;-68
2023/05/04 12:58:54;;;;;;;3.63;2.65;;;;;;;;;;5082080;28;20176;-64
2023/05/04 13:01:19;;;;;;;3.53;2.37;;;;;;;;;;5069908;28;20625;-65
2023/05/04 13:03:44;;;;;;;3.63;2.80;;;;;;;;;;5067186;28;20497;-65
2023/05/04 13:06:10;;;;;;;5.10;3.33;;;;;;;;;;5067520;28;20036;-65
2023/05/04 13:08:35;;;;;;;4.07;3.10;;;;;;;;;;5066887;28;20115;-68
2023/05/04 13:11:00;;;;;;;5.13;3.50;;;;;;;;;;5068747;28;20323;-65
2023/05/04 13:13:27;;;;;;;5.57;3.57;;;;;;;;;;5071800;28;20666;-69
2023/05/04 13:15:53;;;;;;;5.82;3.90;;;;;;;;;;5067031;28;20044;-66
2023/05/04 13:18:18;;;;;;;5.70;4.07;;;;;;;;;;5069079;28;20039;-67
2023/05/04 13:20:44;;;;;;;7.30;4.43;;;;;;;;;;5066768;28;20054;-63
2023/05/04 13:23:10;;;;;;;5.95;4.03;;;;;;;;;;5069028;28;20039;-66
2023/05/04 13:25:35;;;;;;;5.90;4.43;;;;;;;;;;5069609;28;20039;-65
2023/05/04 13:28:00;;;;;;;5.90;4.13;;;;;;;;;;5065452;28;20068;-65
2023/05/04 13:30:25;;;;;;;5.65;3.70;;;;;;;;;;5068354;28;20291;-68
2023/05/04 13:32:51;;;;;;;6.30;4.63;;;;;;;;;;5065923;28;20044;-65
2023/05/04 13:35:16;;;;;;;7.20;4.28;;;;;;;;;;5067119;28;20032;-63
2023/05/04 13:37:41;;;;;;;6.07;3.97;;;;;;;;;;5068587;28;20515;-68
2023/05/04 13:40:07;;;;;;;4.87;3.57;;;;;;;;;;5069092;28;21306;-65
2023/05/04 13:42:32;;;;;;;5.20;3.47;;;;;;;;;;5053722;28;20294;-66
2023/05/04 13:44:57;;;;;;;5.13;3.67;;;;;;;;;;5055124;28;20117;-67
2023/05/04 13:47:23;;;;;;;5.03;3.58;;;;;;;;;;5067080;28;20032;-66
2023/05/04 13:49:48;;;;;;;6.18;4.32;;;;;;;;;;5044463;28;20064;-63
2023/05/04 13:52:14;;;;;;;5.47;3.58;;;;;;;;;;5072442;28;20056;-67
2023/05/04 13:54:39;;;;;;;5.00;3.33;;;;;;;;;;5054824;28;20644;-63
2023/05/04 13:57:04;;;;;;;4.75;3.30;;;;;;;;;;5070287;28;20552;-67
2023/05/04 13:59:29;;;;;;;5.88;3.63;;;;;;;;;;5075076;28;20711;-66
2023/05/04 14:01:55;;;;;;;5.57;3.60;;;;;;;;;;5071589;28;20512;-66
2023/05/04 14:04:21;;;;;;;6.13;3.13;;;;;;;;;;5055450;28;20367;-65
2023/05/04 14:06:49;;;;;;;4.78;3.63;;;;;;;;;;5068437;28;20040;-65
2023/05/04 14:09:15;;;;;;;5.65;3.53;;;;;;;;;;5068885;28;20105;-67
2023/05/04 14:11:41;;;;;;;4.97;3.40;;;;;;;;;;5070674;28;20160;-66
2023/05/04 14:14:06;;;;;;;4.40;3.33;;;;;;;;;;5057751;28;20042;-67
2023/05/04 14:16:32;;;;;;;5.30;3.65;;;;;;;;;;5058733;28;20125;-71
2023/05/04 14:18:57;;;;;;;4.65;3.25;;;;;;;;;;5070114;28;20058;-69
2023/05/04 14:21:22;;;;;;;4.72;3.35;;;;;;;;;;5075998;28;20489;-65
2023/05/04 14:23:48;;;;;;;4.67;3.60;;;;;;;;;;5069227;28;20089;-70
2023/05/04 14:26:13;;;;;;;4.53;2.92;;;;;;;;;;5068772;28;20241;-66
2023/05/04 14:28:38;;;;;;;4.63;3.17;;;;;;;;;;5075171;28;20454;-69
2023/05/04 14:31:10;;;;;;;5.97;3.57;;;;;;;;;;5064906;28;20413;-71
2023/05/04 14:33:35;;;;;;;5.90;3.25;;;;;;;;;;5084791;28;20285;-69
2023/05/04 14:36:00;;;;;;;5.20;3.20;;;;;;;;;;5066680;28;20052;-68